createdAt,value
2018-04-10T00:00:13.928Z,2.80
2018-04-10T00:02:42.245Z,2.73
2018-04-10T00:05:09.911Z,2.57
2018-04-10T00:07:37.410Z,2.13
2018-04-10T00:10:04.989Z,2.40
2018-04-10T00:12:33.161Z,2.40
2018-04-10T00:15:00.652Z,2.47
2018-04-10T00:17:28.130Z,3.10
2018-04-10T00:19:56.450Z,2.60
2018-04-10T00:22:23.996Z,2.77
2018-04-10T00:24:51.501Z,3.00
2018-04-10T00:27:18.994Z,3.40
2018-04-10T00:29:46.570Z,2.77
2018-04-10T00:32:14.062Z,3.00
2018-04-10T00:34:41.547Z,2.87
2018-04-10T00:37:09.830Z,3.07
2018-04-10T00:39:38.132Z,3.00
2018-04-10T00:42:05.664Z,3.07
2018-04-10T00:44:33.930Z,2.43
2018-04-10T00:47:01.414Z,2.80
2018-04-10T00:49:28.914Z,2.40
2018-04-10T00:51:57.228Z,2.83
2018-04-10T00:54:24.695Z,3.07
2018-04-10T00:56:52.179Z,2.90
2018-04-10T00:59:20.444Z,3.37
2018-04-10T01:01:48.757Z,3.30
2018-04-10T01:04:16.255Z,3.00
2018-04-10T01:06:44.570Z,3.33
2018-04-10T01:09:12.037Z,2.67
2018-04-10T01:11:39.589Z,2.73
2018-04-10T01:14:07.083Z,2.77
2018-04-10T01:16:34.609Z,2.60
2018-04-10T01:19:02.099Z,2.70
2018-04-10T01:21:29.575Z,2.60
2018-04-10T01:23:57.085Z,3.00
2018-04-10T01:26:24.581Z,2.50
2018-04-10T01:28:52.867Z,3.23
2018-04-10T01:31:21.151Z,3.03
2018-04-10T01:33:48.713Z,3.07
2018-04-10T01:36:16.229Z,2.83
2018-04-10T01:38:43.699Z,2.90
2018-04-10T01:41:11.161Z,2.30
2018-04-10T01:43:38.695Z,3.47
2018-04-10T01:46:06.178Z,3.77
2018-04-10T01:48:33.645Z,3.73
2018-04-10T01:51:01.273Z,3.20
2018-04-10T01:53:28.770Z,4.17
2018-04-10T01:55:56.299Z,4.33
2018-04-10T01:58:23.783Z,4.50
2018-04-10T02:00:51.305Z,3.47
2018-04-10T02:03:19.559Z,3.47
2018-04-10T02:05:47.033Z,3.97
2018-04-10T02:08:15.281Z,3.20
2018-04-10T02:10:42.787Z,3.30
2018-04-10T02:13:11.047Z,3.47
2018-04-10T02:15:38.581Z,3.80
2018-04-10T02:18:06.085Z,2.93
2018-04-10T02:20:33.599Z,4.17
2018-04-10T02:23:01.079Z,4.13
2018-04-10T02:25:28.548Z,3.17
2018-04-10T02:27:56.786Z,3.10
2018-04-10T02:30:24.308Z,3.83
2018-04-10T02:32:51.802Z,3.57
2018-04-10T02:35:20.054Z,3.50
2018-04-10T02:37:47.522Z,3.40
2018-04-10T02:40:15.773Z,3.37
2018-04-10T02:42:43.257Z,3.60
2018-04-10T02:45:11.581Z,3.93
2018-04-10T02:47:39.064Z,3.60
2018-04-10T02:50:07.294Z,3.63
2018-04-10T02:52:34.822Z,3.90
2018-04-10T02:55:02.327Z,3.43
2018-04-10T02:57:29.870Z,3.60
2018-04-10T02:59:58.168Z,3.77
2018-04-10T03:02:25.636Z,3.50
2018-04-10T03:04:53.112Z,3.40
2018-04-10T03:07:21.370Z,3.57
2018-04-10T03:09:48.866Z,4.03
2018-04-10T03:12:17.058Z,3.80
2018-04-10T03:14:44.554Z,3.47
2018-04-10T03:17:12.016Z,3.40
2018-04-10T03:19:39.574Z,3.23
2018-04-10T03:22:07.584Z,3.63
2018-04-10T03:24:35.062Z,3.37
2018-04-10T03:27:02.652Z,4.03
2018-04-10T03:29:30.102Z,3.77
2018-04-10T03:31:57.582Z,3.63
2018-04-10T03:34:25.112Z,4.20
2018-04-10T03:36:52.662Z,3.63
2018-04-10T03:39:20.221Z,4.57
2018-04-10T03:41:47.785Z,3.97
2018-04-10T03:44:15.682Z,3.50
2018-04-10T03:46:43.168Z,3.57
2018-04-10T03:49:10.670Z,4.37
2018-04-10T03:51:38.160Z,4.07
2018-04-10T03:54:05.634Z,4.33
2018-04-10T03:56:33.138Z,4.47
2018-04-10T04:01:34.220Z,4.33
2018-04-10T04:04:01.733Z,4.40
2018-04-10T04:06:29.207Z,4.80
2018-04-10T04:08:56.703Z,4.83
2018-04-10T04:11:24.202Z,3.87
2018-04-10T04:13:51.693Z,3.77
2018-04-10T04:16:31.023Z,4.07
2018-04-10T04:19:10.504Z,4.17
2018-04-10T04:22:04.797Z,4.47
2018-04-10T04:24:33.075Z,4.57
2018-04-10T04:27:00.559Z,4.23
2018-04-10T04:29:28.181Z,4.00
2018-04-10T04:31:56.766Z,4.40
2018-04-10T04:34:24.423Z,4.00
2018-04-10T04:36:52.029Z,4.77
2018-04-10T04:39:20.409Z,5.47
2018-04-10T04:41:47.901Z,4.63
2018-04-10T04:44:15.367Z,5.23
2018-04-10T04:46:42.943Z,4.77
2018-04-10T04:49:10.495Z,5.10
2018-04-10T04:51:38.055Z,4.83
2018-04-10T04:54:05.538Z,5.03
2018-04-10T04:56:33.020Z,4.53
2018-04-10T04:59:00.481Z,4.97
2018-04-10T05:01:27.940Z,4.47
2018-04-10T05:03:56.255Z,4.73
2018-04-10T05:06:23.786Z,4.80
2018-04-10T05:08:52.007Z,4.73
2018-04-10T05:11:19.482Z,5.10
2018-04-10T05:13:47.105Z,5.10
2018-04-10T05:16:14.571Z,4.43
2018-04-10T05:18:42.984Z,5.03
2018-04-10T05:21:10.543Z,5.00
2018-04-10T05:23:38.028Z,5.37
2018-04-10T05:26:05.530Z,4.50
2018-04-10T05:28:33.006Z,4.63
2018-04-10T05:31:00.510Z,4.77
2018-04-10T05:33:28.806Z,5.03
2018-04-10T05:35:56.294Z,5.30
2018-04-10T05:38:23.818Z,4.80
2018-04-10T05:40:51.352Z,5.23
2018-04-10T05:43:19.598Z,4.60
2018-04-10T05:45:47.823Z,4.33
2018-04-10T05:48:15.314Z,4.97
2018-04-10T05:50:43.328Z,4.50
2018-04-10T05:53:10.825Z,4.77
2018-04-10T05:55:38.312Z,3.97
2018-04-10T05:58:05.824Z,4.97
2018-04-10T06:00:33.339Z,5.20
2018-04-10T06:03:00.824Z,5.17
2018-04-10T06:05:29.083Z,5.17
2018-04-10T06:07:56.537Z,4.73
2018-04-10T06:10:24.008Z,4.80
2018-04-10T06:12:52.260Z,4.93
2018-04-10T06:15:19.742Z,4.53
2018-04-10T06:17:47.316Z,5.30
2018-04-10T06:20:14.784Z,4.73
2018-04-10T06:22:42.298Z,4.77
2018-04-10T06:25:09.772Z,4.60
2018-04-10T06:27:37.988Z,4.90
2018-04-10T06:30:05.460Z,3.90
2018-04-10T06:32:33.020Z,4.67
2018-04-10T06:35:01.707Z,4.37
2018-04-10T06:37:29.180Z,4.10
2018-04-10T06:39:56.688Z,4.53
2018-04-10T06:42:24.156Z,4.13
2018-04-10T06:44:51.711Z,4.60
2018-04-10T06:47:19.225Z,4.47
2018-04-10T06:49:46.707Z,5.53
2018-04-10T06:52:14.969Z,5.40
2018-04-10T06:54:42.577Z,5.63
2018-04-10T06:57:10.170Z,5.77
2018-04-10T06:59:37.695Z,7.23
2018-04-10T07:02:05.192Z,6.40
2018-04-10T07:04:32.689Z,6.03
2018-04-10T07:07:00.172Z,6.47
2018-04-10T07:09:27.643Z,6.37
2018-04-10T07:11:55.124Z,7.27
2018-04-10T07:14:23.366Z,5.27
2018-04-10T07:16:50.898Z,6.07
2018-04-10T07:19:18.458Z,5.97
2018-04-10T07:21:45.955Z,5.97
2018-04-10T07:24:13.475Z,5.67
2018-04-10T07:26:41.023Z,7.20
2018-04-10T07:29:08.506Z,6.37
2018-04-10T07:31:35.982Z,8.83
2018-04-10T07:34:03.512Z,7.43
2018-04-10T07:36:30.996Z,8.97
2018-04-10T07:38:58.483Z,6.90
2018-04-10T07:41:25.952Z,8.73
2018-04-10T07:43:53.498Z,7.97
2018-04-10T07:46:22.018Z,8.97
2018-04-10T07:48:49.528Z,8.73
2018-04-10T07:51:17.803Z,10.57
2018-04-10T07:53:46.062Z,10.20
2018-04-10T07:56:14.299Z,15.03
2018-04-10T07:58:41.840Z,8.77
2018-04-10T08:01:09.343Z,7.27
2018-04-10T08:03:36.826Z,6.80
2018-04-10T08:06:05.090Z,5.90
2018-04-10T08:08:33.377Z,4.70
2018-04-10T08:11:00.837Z,4.43
2018-04-10T08:13:29.102Z,4.40
2018-04-10T08:15:56.586Z,3.93
2018-04-10T08:18:24.106Z,5.13
2018-04-10T08:20:51.865Z,4.07
2018-04-10T08:23:19.426Z,3.50
2018-04-10T08:25:46.951Z,3.13
2018-04-10T08:28:15.206Z,3.23
2018-04-10T08:30:42.815Z,3.57
2018-04-10T08:33:10.307Z,3.20
2018-04-10T08:35:38.552Z,2.70
2018-04-10T08:38:06.174Z,2.20
2018-04-10T08:40:33.696Z,2.57
2018-04-10T08:43:01.935Z,2.00
2018-04-10T08:45:29.468Z,1.90
2018-04-10T08:47:57.021Z,3.00
2018-04-10T08:50:25.271Z,1.83
2018-04-10T08:52:52.779Z,2.50
2018-04-10T08:55:21.017Z,2.23
2018-04-10T08:57:48.639Z,2.40
2018-04-10T09:00:16.135Z,2.17
2018-04-10T09:02:43.634Z,1.90
2018-04-10T09:05:11.879Z,2.50
2018-04-10T09:07:39.391Z,2.00
2018-04-10T09:10:06.951Z,1.87
2018-04-10T09:12:35.215Z,1.70
2018-04-10T09:15:03.468Z,1.80
2018-04-10T09:17:30.971Z,1.70
2018-04-10T09:19:58.541Z,1.93
2018-04-10T09:22:26.024Z,2.07
2018-04-10T09:24:53.535Z,1.83
2018-04-10T09:27:21.049Z,2.40
2018-04-10T09:29:48.551Z,1.97
2018-04-10T09:32:16.051Z,1.93
2018-04-10T09:34:43.527Z,1.70
2018-04-10T09:37:11.025Z,2.67
2018-04-10T09:39:39.303Z,2.40
2018-04-10T09:42:07.593Z,2.20
2018-04-10T09:44:35.866Z,3.30
2018-04-10T09:47:04.104Z,3.27
2018-04-10T09:49:31.598Z,2.83
2018-04-10T09:52:00.863Z,3.80
2018-04-10T09:54:28.368Z,2.90
2018-04-10T09:56:55.871Z,3.13
2018-04-10T09:59:23.347Z,2.60
2018-04-10T10:01:51.545Z,3.23
2018-04-10T10:04:19.043Z,3.50
2018-04-10T10:06:46.559Z,5.90
2018-04-10T10:09:14.051Z,3.73
2018-04-10T10:11:42.291Z,11.50
2018-04-10T10:14:09.772Z,11.27
2018-04-10T10:16:37.298Z,11.00
2018-04-10T10:19:04.765Z,11.20
2018-04-10T10:21:32.277Z,8.80
2018-04-10T10:23:59.777Z,8.23
2018-04-10T10:26:27.269Z,8.27
2018-04-10T10:28:54.756Z,7.13
2018-04-10T10:31:23.009Z,6.67
2018-04-10T10:33:50.538Z,5.30
2018-04-10T10:36:18.790Z,5.70
2018-04-10T10:38:46.300Z,4.73
2018-04-10T10:41:13.792Z,4.20
2018-04-10T10:43:41.306Z,4.00
2018-04-10T10:46:08.784Z,3.80
2018-04-10T10:48:36.295Z,3.67
2018-04-10T10:51:03.783Z,3.73
2018-04-10T10:53:32.069Z,3.30
2018-04-10T10:56:00.311Z,3.33
2018-04-10T10:58:27.817Z,2.80
2018-04-10T11:00:55.303Z,3.23
2018-04-10T11:03:22.829Z,4.00
2018-04-10T11:05:50.321Z,4.13
2018-04-10T11:08:17.860Z,3.80
2018-04-10T11:10:45.326Z,3.27
2018-04-10T11:13:12.819Z,4.10
2018-04-10T11:15:40.324Z,3.53
2018-04-10T11:18:20.284Z,3.97
2018-04-10T11:20:47.764Z,5.80
2018-04-10T11:23:16.030Z,4.07
2018-04-10T11:25:43.506Z,4.17
2018-04-10T11:28:10.996Z,4.33
2018-04-10T11:30:38.450Z,3.27
2018-04-10T11:33:06.026Z,4.77
2018-04-10T11:35:33.560Z,4.37
2018-04-10T11:38:01.026Z,3.73
2018-04-10T11:40:28.520Z,4.73
2018-04-10T11:42:56.023Z,3.70
2018-04-10T11:45:23.790Z,3.50
2018-04-10T11:47:51.278Z,3.87
2018-04-10T11:50:18.898Z,3.30
2018-04-10T11:52:46.384Z,2.80
2018-04-10T11:55:13.907Z,2.40
2018-04-10T11:57:41.452Z,2.23
2018-04-10T12:00:09.003Z,2.73
2018-04-10T12:02:36.480Z,1.83
2018-04-10T12:05:03.975Z,2.00
2018-04-10T12:07:31.713Z,2.27
2018-04-10T12:09:59.193Z,1.90
2018-04-10T12:12:26.655Z,1.83
2018-04-10T12:14:54.227Z,2.00
2018-04-10T12:17:22.494Z,4.17
2018-04-10T12:19:50.907Z,5.23
2018-04-10T12:22:18.447Z,5.30
2018-04-10T12:24:45.947Z,4.90
2018-04-10T12:27:13.455Z,5.60
2018-04-10T12:29:40.945Z,4.70
2018-04-10T12:32:08.440Z,4.63
2018-04-10T12:34:36.742Z,3.80
2018-04-10T12:37:04.238Z,4.10
2018-04-10T12:39:31.776Z,5.87
2018-04-10T12:41:59.350Z,5.07
2018-04-10T12:44:26.834Z,5.67
2018-04-10T12:46:54.352Z,6.80
2018-04-10T12:49:21.828Z,6.83
2018-04-10T12:51:49.306Z,6.97
2018-04-10T12:54:16.792Z,6.30
2018-04-10T12:56:44.412Z,5.80
2018-04-10T12:59:11.958Z,6.50
2018-04-10T13:01:39.507Z,4.23
2018-04-10T13:04:07.744Z,3.87
2018-04-10T13:06:36.000Z,7.90
2018-04-10T13:09:03.514Z,7.43
2018-04-10T13:11:31.058Z,6.37
2018-04-10T13:13:58.601Z,7.00
2018-04-10T13:16:26.805Z,6.90
2018-04-10T13:18:54.307Z,7.10
2018-04-10T13:21:21.788Z,6.73
2018-04-10T13:23:49.266Z,5.63
2018-04-10T13:26:16.765Z,6.00
2018-04-10T13:28:44.262Z,8.70
2018-04-10T13:31:11.772Z,7.33
2018-04-10T13:33:39.271Z,6.83
2018-04-10T13:36:07.516Z,7.67
2018-04-10T13:38:35.126Z,9.30
2018-04-10T13:41:02.639Z,9.63
2018-04-10T13:43:30.113Z,7.50
2018-04-10T13:45:57.657Z,8.83
2018-04-10T13:48:25.933Z,12.20
2018-04-10T13:50:54.198Z,9.77
2018-04-10T13:53:22.474Z,7.03
2018-04-10T13:55:49.967Z,5.87
2018-04-10T13:58:17.475Z,6.40
2018-04-10T14:00:45.720Z,6.83
2018-04-10T14:03:13.207Z,7.17
2018-04-10T14:05:40.703Z,5.33
2018-04-10T14:08:08.935Z,5.60
2018-04-10T14:10:36.465Z,6.07
2018-04-10T14:13:04.024Z,8.67
2018-04-10T14:15:31.657Z,9.47
2018-04-10T14:17:59.187Z,10.03
2018-04-10T14:20:27.497Z,8.67
2018-04-10T14:22:54.987Z,8.67
2018-04-10T14:25:22.487Z,10.27
2018-04-10T14:27:49.969Z,8.83
2018-04-10T14:30:17.442Z,7.40
2018-04-10T14:32:44.946Z,6.33
2018-04-10T14:35:12.452Z,5.67
2018-04-10T14:37:39.928Z,5.53
2018-04-10T14:40:07.442Z,8.37
2018-04-10T14:42:35.724Z,6.00
2018-04-10T14:45:03.282Z,5.30
2018-04-10T14:47:30.774Z,5.40
2018-04-10T14:49:58.998Z,7.33
2018-04-10T14:52:26.474Z,6.73
2018-04-10T14:54:53.947Z,5.63
2018-04-10T14:57:21.424Z,4.47
2018-04-10T14:59:48.948Z,7.33
2018-04-10T15:02:16.417Z,5.57
2018-04-10T15:04:43.962Z,5.07
2018-04-10T15:07:12.727Z,7.53
2018-04-10T15:09:40.251Z,6.63
2018-04-10T15:12:08.463Z,5.63
2018-04-10T15:14:35.997Z,5.10
2018-04-10T15:17:04.111Z,4.53
2018-04-10T15:19:31.816Z,3.63
2018-04-10T15:22:00.119Z,3.10
2018-04-10T15:24:28.376Z,3.37
2018-04-10T15:26:56.613Z,4.03
2018-04-10T15:29:24.090Z,3.60
2018-04-10T15:31:51.580Z,3.30
2018-04-10T15:34:19.890Z,3.63
2018-04-10T15:36:47.419Z,4.23
2018-04-10T15:39:14.890Z,2.90
2018-04-10T15:41:42.438Z,2.93
2018-04-10T15:44:09.942Z,3.83
2018-04-10T15:46:37.416Z,3.07
2018-04-10T15:49:05.074Z,3.13
2018-04-10T15:51:32.544Z,3.90
2018-04-10T15:54:00.026Z,2.60
2018-04-10T15:56:27.594Z,2.60
2018-04-10T15:58:55.065Z,1.77
2018-04-10T16:01:22.531Z,2.07
2018-04-10T16:03:50.026Z,3.00
2018-04-10T16:06:17.552Z,1.97
2018-04-10T16:08:45.118Z,2.30
2018-04-10T16:11:12.602Z,1.57
2018-04-10T16:13:40.098Z,1.90
2018-04-10T16:16:07.706Z,1.60
2018-04-10T16:18:35.211Z,1.47
2018-04-10T16:21:02.722Z,1.33
2018-04-10T16:23:30.176Z,1.63
2018-04-10T16:25:58.484Z,1.50
2018-04-10T16:28:25.968Z,1.37
2018-04-10T16:30:53.507Z,1.30
2018-04-10T16:33:21.061Z,1.83
2018-04-10T16:35:48.647Z,2.13
2018-04-10T16:38:16.882Z,3.00
2018-04-10T16:40:44.340Z,3.07
2018-04-10T16:43:11.976Z,3.30
2018-04-10T16:45:39.485Z,3.40
2018-04-10T16:48:07.046Z,3.40
2018-04-10T16:50:34.530Z,3.23
2018-04-10T16:53:02.025Z,4.20
2018-04-10T16:55:29.508Z,4.30
2018-04-10T16:57:57.114Z,4.93
2018-04-10T17:00:24.648Z,4.57
2018-04-10T17:02:52.917Z,4.10
2018-04-10T17:05:20.409Z,4.53
2018-04-10T17:07:48.697Z,4.07
2018-04-10T17:10:16.181Z,4.07
2018-04-10T17:12:43.731Z,3.67
2018-04-10T17:15:11.208Z,3.83
2018-04-10T17:17:39.062Z,3.83
2018-04-10T17:20:06.554Z,4.10
2018-04-10T17:22:34.039Z,3.93
2018-04-10T17:25:02.214Z,3.73
2018-04-10T17:27:30.472Z,4.33
2018-04-10T17:29:57.972Z,4.03
2018-04-10T17:32:26.760Z,5.23
2018-04-10T17:34:54.327Z,4.30
2018-04-10T17:37:21.811Z,4.93
2018-04-10T17:39:50.133Z,4.60
2018-04-10T17:42:17.648Z,4.60
2018-04-10T17:44:45.962Z,4.93
2018-04-10T17:47:14.274Z,4.60
2018-04-10T17:49:41.779Z,4.97
2018-04-10T17:52:09.285Z,4.90
2018-04-10T17:54:36.773Z,5.17
2018-04-10T17:57:04.348Z,5.23
2018-04-10T17:59:31.870Z,4.10
2018-04-10T18:01:59.395Z,5.07
2018-04-10T18:04:26.994Z,5.60
2018-04-10T18:06:54.602Z,5.90
2018-04-10T18:09:22.102Z,6.37
2018-04-10T18:11:49.632Z,5.47
2018-04-10T18:14:17.179Z,5.87
2018-04-10T18:16:45.273Z,4.87
2018-04-10T18:19:12.759Z,5.30
2018-04-10T18:21:41.716Z,5.33
2018-04-10T18:24:09.224Z,5.10
2018-04-10T18:26:36.875Z,5.50
2018-04-10T18:29:04.404Z,4.87
2018-04-10T18:31:32.879Z,4.80
2018-04-10T18:34:00.377Z,4.57
2018-04-10T18:36:28.675Z,4.60
2018-04-10T18:38:56.962Z,5.13
2018-04-10T18:41:24.476Z,6.47
2018-04-10T18:43:52.002Z,6.27
2018-04-10T18:46:19.479Z,6.60
2018-04-10T18:48:46.966Z,5.20
2018-04-10T18:51:14.474Z,4.30
2018-04-10T18:53:42.034Z,4.10
2018-04-10T18:56:09.547Z,3.70
2018-04-10T18:58:37.055Z,3.30
2018-04-10T19:01:04.536Z,4.77
2018-04-10T19:03:32.077Z,5.47
2018-04-10T19:05:59.583Z,3.87
2018-04-10T19:08:27.151Z,4.93
2018-04-10T19:10:54.667Z,5.33
2018-04-10T19:13:22.208Z,5.23
2018-04-10T19:15:49.716Z,5.37
2018-04-10T19:18:23.228Z,5.27
2018-04-10T19:20:50.727Z,4.20
2018-04-10T19:23:18.213Z,5.50
2018-04-10T19:25:45.717Z,4.37
2018-04-10T19:28:14.058Z,3.93
2018-04-10T19:30:42.335Z,3.13
2018-04-10T19:33:09.865Z,4.00
2018-04-10T19:35:37.401Z,3.90
2018-04-10T19:38:04.974Z,3.60
2018-04-10T19:40:32.488Z,4.10
2018-04-10T19:43:00.771Z,4.30
2018-04-10T19:45:29.069Z,5.83
2018-04-10T19:47:56.638Z,8.50
2018-04-10T19:50:24.163Z,8.27
2018-04-10T19:52:52.046Z,7.67
2018-04-10T19:55:19.651Z,7.83
2018-04-10T19:57:47.141Z,6.73
2018-04-10T20:00:14.632Z,6.10
2018-04-10T20:02:42.113Z,4.27
2018-04-10T20:05:09.595Z,3.77
2018-04-10T20:07:37.834Z,3.63
2018-04-10T20:10:05.381Z,3.40
2018-04-10T20:12:32.901Z,3.57
2018-04-10T20:15:00.456Z,3.37
2018-04-10T20:17:27.965Z,3.50
2018-04-10T20:19:55.479Z,4.33
2018-04-10T20:22:23.040Z,4.43
2018-04-10T20:24:51.333Z,4.20
2018-04-10T20:27:18.912Z,4.30
2018-04-10T20:29:46.490Z,3.67
2018-04-10T20:32:14.017Z,3.10
2018-04-10T20:34:42.309Z,3.70
2018-04-10T20:37:10.639Z,4.27
2018-04-10T20:39:38.265Z,4.00
2018-04-10T20:42:05.804Z,2.77
2018-04-10T20:44:33.327Z,2.83
2018-04-10T20:47:00.847Z,3.03
2018-04-10T20:49:29.145Z,2.67
2018-04-10T20:51:57.935Z,2.67
2018-04-10T20:54:25.565Z,3.10
2018-04-10T20:56:53.061Z,3.60
2018-04-10T20:59:21.321Z,3.33
2018-04-10T21:01:48.835Z,3.10
2018-04-10T21:04:16.339Z,3.00
2018-04-10T21:06:43.871Z,4.03
2018-04-10T21:09:11.366Z,4.37
2018-04-10T21:11:39.544Z,5.20
2018-04-10T21:14:07.034Z,5.23
2018-04-10T21:16:34.548Z,5.83
2018-04-10T21:19:02.094Z,6.00
2018-04-10T21:21:29.651Z,6.37
2018-04-10T21:23:57.134Z,6.53
2018-04-10T21:26:24.712Z,6.67
2018-04-10T21:28:52.271Z,7.67
2018-04-10T21:31:19.809Z,7.03
2018-04-10T21:33:47.289Z,6.23
2018-04-10T21:36:15.558Z,6.23
2018-04-10T21:38:43.059Z,6.50
2018-04-10T21:41:10.617Z,6.50
2018-04-10T21:43:38.099Z,6.13
2018-04-10T21:46:05.592Z,6.03
2018-04-10T21:48:33.066Z,5.57
2018-04-10T21:51:01.346Z,6.23
2018-04-10T21:53:29.567Z,5.90
2018-04-10T21:55:57.804Z,6.00
2018-04-10T21:58:25.319Z,5.13
2018-04-10T22:00:53.020Z,4.83
2018-04-10T22:03:20.513Z,4.10
2018-04-10T22:05:48.001Z,3.83
2018-04-10T22:08:16.289Z,3.40
2018-04-10T22:10:43.809Z,3.60
2018-04-10T22:13:11.342Z,2.80
2018-04-10T22:15:38.849Z,2.57
2018-04-10T22:18:06.365Z,3.90
2018-04-10T22:20:33.870Z,5.57
2018-04-10T22:23:01.360Z,4.70
2018-04-10T22:25:28.896Z,4.00
2018-04-10T22:27:56.397Z,4.93
2018-04-10T22:30:23.877Z,5.30
2018-04-10T22:32:52.135Z,5.83
2018-04-10T22:35:19.846Z,6.60
2018-04-10T22:37:47.392Z,6.37
2018-04-10T22:40:14.908Z,6.40
2018-04-10T22:42:42.522Z,6.60
2018-04-10T22:45:10.789Z,5.60
2018-04-10T22:47:39.052Z,6.87
2018-04-10T22:50:06.562Z,6.87
2018-04-10T22:52:34.638Z,5.07
2018-04-10T22:55:02.129Z,5.00
2018-04-10T22:57:29.605Z,5.40
2018-04-10T22:59:57.117Z,5.37
2018-04-10T23:02:24.614Z,4.73
2018-04-10T23:04:52.133Z,5.37
2018-04-10T23:07:20.648Z,6.03
2018-04-10T23:09:49.067Z,5.40
2018-04-10T23:12:16.566Z,4.37
2018-04-10T23:14:44.282Z,3.73
2018-04-10T23:17:11.779Z,7.23
2018-04-10T23:19:39.277Z,6.37
2018-04-10T23:22:07.587Z,7.33
2018-04-10T23:24:35.079Z,7.63
2018-04-10T23:27:02.706Z,7.33
2018-04-10T23:29:30.199Z,8.57
2018-04-10T23:31:57.718Z,7.73
2018-04-10T23:34:25.212Z,7.10
2018-04-10T23:36:52.726Z,6.83
2018-04-10T23:39:20.202Z,7.83
2018-04-10T23:41:47.749Z,6.63
2018-04-10T23:44:15.215Z,6.10
2018-04-10T23:46:42.687Z,4.83
2018-04-10T23:49:10.185Z,4.53
2018-04-10T23:51:37.710Z,4.37
2018-04-10T23:54:05.251Z,3.37
2018-04-10T23:56:32.752Z,4.00
2018-04-10T23:59:00.260Z,4.03
